sensor_id;sensor_type;location;lat;lon;timestamp;P1;durP1;ratioP1;P2;durP2;ratioP2
80209;SDS011;69529;37.974;23.708;2023-05-01T00:00:04;6.72;;;5.03;;
80209;SDS011;69529;37.974;23.708;2023-05-01T00:02:33;5.62;;;4.75;;
80209;SDS011;69529;37.974;23.708;2023-05-01T00:05:01;5.62;;;4.60;;
80209;SDS011;69529;37.974;23.708;2023-05-01T00:07:30;5.03;;;4.53;;
80209;SDS011;69529;37.974;23.708;2023-05-01T00:09:58;6.80;;;4.45;;
80209;SDS011;69529;37.974;23.708;2023-05-01T00:12:25;7.35;;;4.60;;
80209;SDS011;69529;37.974;23.708;2023-05-01T00:14:55;6.45;;;4.58;;
80209;SDS011;69529;37.974;23.708;2023-05-01T00:17:22;5.50;;;4.97;;
80209;SDS011;69529;37.974;23.708;2023-05-01T00:19:53;6.08;;;4.83;;
80209;SDS011;69529;37.974;23.708;2023-05-01T00:22:21;6.03;;;4.63;;
80209;SDS011;69529;37.974;23.708;2023-05-01T00:24:49;9.68;;;5.78;;
80209;SDS011;69529;37.974;23.708;2023-05-01T00:27:17;8.95;;;6.72;;
80209;SDS011;69529;37.974;23.708;2023-05-01T00:29:44;8.85;;;5.87;;
80209;SDS011;69529;37.974;23.708;2023-05-01T00:32:12;7.80;;;5.78;;
80209;SDS011;69529;37.974;23.708;2023-05-01T00:34:40;6.90;;;6.15;;
80209;SDS011;69529;37.974;23.708;2023-05-01T00:37:07;7.10;;;6.40;;
80209;SDS011;69529;37.974;23.708;2023-05-01T00:39:35;9.08;;;7.45;;
80209;SDS011;69529;37.974;23.708;2023-05-01T00:42:03;7.35;;;6.55;;
80209;SDS011;69529;37.974;23.708;2023-05-01T00:44:31;7.35;;;6.15;;
80209;SDS011;69529;37.974;23.708;2023-05-01T00:46:59;8.90;;;6.53;;
80209;SDS011;69529;37.974;23.708;2023-05-01T00:49:28;9.85;;;7.05;;
80209;SDS011;69529;37.974;23.708;2023-05-01T00:51:56;8.48;;;6.67;;
80209;SDS011;69529;37.974;23.708;2023-05-01T00:54:24;8.25;;;6.60;;
80209;SDS011;69529;37.974;23.708;2023-05-01T00:56:53;6.85;;;6.12;;
80209;SDS011;69529;37.974;23.708;2023-05-01T00:59:20;7.65;;;6.85;;
80209;SDS011;69529;37.974;23.708;2023-05-01T01:01:49;8.35;;;7.00;;
80209;SDS011;69529;37.974;23.708;2023-05-01T01:04:17;9.75;;;7.42;;
80209;SDS011;69529;37.974;23.708;2023-05-01T01:20:45;8.28;;;7.30;;
80209;SDS011;69529;37.974;23.708;2023-05-01T01:23:31;8.45;;;7.62;;
80209;SDS011;69529;37.974;23.708;2023-05-01T01:26:03;8.58;;;7.72;;
80209;SDS011;69529;37.974;23.708;2023-05-01T01:31:41;8.38;;;7.42;;
80209;SDS011;69529;37.974;23.708;2023-05-01T01:34:24;9.88;;;8.35;;
80209;SDS011;69529;37.974;23.708;2023-05-01T01:37:19;8.70;;;7.08;;
80209;SDS011;69529;37.974;23.708;2023-05-01T01:42:30;11.88;;;7.67;;
80209;SDS011;69529;37.974;23.708;2023-05-01T01:45:08;8.85;;;7.90;;
80209;SDS011;69529;37.974;23.708;2023-05-01T01:47:37;13.72;;;8.33;;
80209;SDS011;69529;37.974;23.708;2023-05-01T01:50:07;10.05;;;7.28;;
80209;SDS011;69529;37.974;23.708;2023-05-01T01:52:37;10.82;;;7.08;;
80209;SDS011;69529;37.974;23.708;2023-05-01T01:55:07;10.60;;;7.75;;
80209;SDS011;69529;37.974;23.708;2023-05-01T01:57:37;8.35;;;7.35;;
80209;SDS011;69529;37.974;23.708;2023-05-01T02:00:05;9.28;;;8.20;;
80209;SDS011;69529;37.974;23.708;2023-05-01T02:02:36;10.28;;;7.83;;
80209;SDS011;69529;37.974;23.708;2023-05-01T02:05:06;8.95;;;7.90;;
80209;SDS011;69529;37.974;23.708;2023-05-01T02:07:35;11.68;;;8.18;;
80209;SDS011;69529;37.974;23.708;2023-05-01T02:10:05;11.17;;;7.80;;
80209;SDS011;69529;37.974;23.708;2023-05-01T02:12:39;8.70;;;7.60;;
80209;SDS011;69529;37.974;23.708;2023-05-01T02:15:08;11.75;;;7.67;;
80209;SDS011;69529;37.974;23.708;2023-05-01T02:17:37;8.85;;;7.72;;
80209;SDS011;69529;37.974;23.708;2023-05-01T02:20:07;9.50;;;7.85;;
80209;SDS011;69529;37.974;23.708;2023-05-01T02:22:38;8.98;;;7.83;;
80209;SDS011;69529;37.974;23.708;2023-05-01T02:25:07;10.43;;;7.85;;
80209;SDS011;69529;37.974;23.708;2023-05-01T02:27:38;11.90;;;8.23;;
80209;SDS011;69529;37.974;23.708;2023-05-01T02:30:19;8.18;;;7.33;;
80209;SDS011;69529;37.974;23.708;2023-05-01T02:32:47;9.63;;;8.40;;
80209;SDS011;69529;37.974;23.708;2023-05-01T02:35:15;11.75;;;8.63;;
80209;SDS011;69529;37.974;23.708;2023-05-01T02:37:43;9.10;;;7.03;;
80209;SDS011;69529;37.974;23.708;2023-05-01T02:40:11;9.13;;;8.15;;
80209;SDS011;69529;37.974;23.708;2023-05-01T02:42:43;10.25;;;7.97;;
80209;SDS011;69529;37.974;23.708;2023-05-01T02:45:16;9.88;;;7.10;;
80209;SDS011;69529;37.974;23.708;2023-05-01T02:47:47;10.95;;;7.72;;
80209;SDS011;69529;37.974;23.708;2023-05-01T02:50:17;10.90;;;7.65;;
80209;SDS011;69529;37.974;23.708;2023-05-01T02:52:48;8.88;;;7.35;;
80209;SDS011;69529;37.974;23.708;2023-05-01T02:55:17;12.18;;;8.00;;
80209;SDS011;69529;37.974;23.708;2023-05-01T02:57:45;10.65;;;7.65;;
80209;SDS011;69529;37.974;23.708;2023-05-01T03:00:13;9.60;;;7.85;;
80209;SDS011;69529;37.974;23.708;2023-05-01T03:02:41;7.95;;;7.15;;
80209;SDS011;69529;37.974;23.708;2023-05-01T03:05:09;9.10;;;7.65;;
80209;SDS011;69529;37.974;23.708;2023-05-01T03:07:37;9.00;;;7.60;;
80209;SDS011;69529;37.974;23.708;2023-05-01T03:10:05;9.13;;;7.25;;
80209;SDS011;69529;37.974;23.708;2023-05-01T03:12:33;12.98;;;8.35;;
80209;SDS011;69529;37.974;23.708;2023-05-01T03:15:01;8.78;;;7.80;;
80209;SDS011;69529;37.974;23.708;2023-05-01T03:17:29;8.60;;;6.95;;
80209;SDS011;69529;37.974;23.708;2023-05-01T03:19:56;9.53;;;6.72;;
80209;SDS011;69529;37.974;23.708;2023-05-01T03:22:27;8.73;;;7.25;;
80209;SDS011;69529;37.974;23.708;2023-05-01T03:24:58;11.12;;;7.28;;
80209;SDS011;69529;37.974;23.708;2023-05-01T03:27:26;8.88;;;7.47;;
80209;SDS011;69529;37.974;23.708;2023-05-01T03:29:53;9.63;;;7.35;;
80209;SDS011;69529;37.974;23.708;2023-05-01T03:32:21;9.28;;;7.70;;
80209;SDS011;69529;37.974;23.708;2023-05-01T03:34:49;7.83;;;7.03;;
80209;SDS011;69529;37.974;23.708;2023-05-01T03:37:17;10.30;;;7.45;;
80209;SDS011;69529;37.974;23.708;2023-05-01T03:39:44;9.55;;;7.28;;
80209;SDS011;69529;37.974;23.708;2023-05-01T03:42:12;10.60;;;7.08;;
80209;SDS011;69529;37.974;23.708;2023-05-01T03:44:40;10.10;;;6.80;;
80209;SDS011;69529;37.974;23.708;2023-05-01T03:47:07;9.18;;;7.35;;
80209;SDS011;69529;37.974;23.708;2023-05-01T03:49:35;9.80;;;7.05;;
80209;SDS011;69529;37.974;23.708;2023-05-01T03:52:03;10.50;;;7.42;;
80209;SDS011;69529;37.974;23.708;2023-05-01T03:54:31;8.80;;;6.75;;
80209;SDS011;69529;37.974;23.708;2023-05-01T03:56:58;10.90;;;8.05;;
80209;SDS011;69529;37.974;23.708;2023-05-01T03:59:26;10.80;;;7.12;;
80209;SDS011;69529;37.974;23.708;2023-05-01T04:01:54;8.48;;;6.83;;
80209;SDS011;69529;37.974;23.708;2023-05-01T04:04:21;9.85;;;7.08;;
80209;SDS011;69529;37.974;23.708;2023-05-01T04:06:49;10.03;;;7.30;;
80209;SDS011;69529;37.974;23.708;2023-05-01T04:09:17;10.35;;;6.70;;
80209;SDS011;69529;37.974;23.708;2023-05-01T04:11:45;7.10;;;6.35;;
80209;SDS011;69529;37.974;23.708;2023-05-01T04:14:12;9.50;;;6.70;;
80209;SDS011;69529;37.974;23.708;2023-05-01T04:16:40;8.90;;;6.90;;
80209;SDS011;69529;37.974;23.708;2023-05-01T04:19:08;8.38;;;6.65;;
80209;SDS011;69529;37.974;23.708;2023-05-01T04:21:35;9.75;;;7.10;;
80209;SDS011;69529;37.974;23.708;2023-05-01T04:24:03;7.40;;;6.20;;
80209;SDS011;69529;37.974;23.708;2023-05-01T04:26:31;6.80;;;6.10;;
80209;SDS011;69529;37.974;23.708;2023-05-01T04:28:59;8.13;;;6.90;;
80209;SDS011;69529;37.974;23.708;2023-05-01T04:31:27;10.15;;;6.87;;
80209;SDS011;69529;37.974;23.708;2023-05-01T04:33:54;10.90;;;7.08;;
80209;SDS011;69529;37.974;23.708;2023-05-01T04:36:23;9.55;;;7.47;;
80209;SDS011;69529;37.974;23.708;2023-05-01T04:38:51;11.10;;;7.87;;
80209;SDS011;69529;37.974;23.708;2023-05-01T04:41:18;7.45;;;6.50;;
80209;SDS011;69529;37.974;23.708;2023-05-01T04:43:46;8.63;;;7.22;;
80209;SDS011;69529;37.974;23.708;2023-05-01T04:46:14;8.90;;;7.28;;
80209;SDS011;69529;37.974;23.708;2023-05-01T04:48:41;10.45;;;7.22;;
80209;SDS011;69529;37.974;23.708;2023-05-01T04:51:09;11.73;;;7.58;;
80209;SDS011;69529;37.974;23.708;2023-05-01T04:53:37;10.63;;;7.55;;
80209;SDS011;69529;37.974;23.708;2023-05-01T04:56:04;9.43;;;7.30;;
80209;SDS011;69529;37.974;23.708;2023-05-01T04:58:32;10.85;;;7.15;;
80209;SDS011;69529;37.974;23.708;2023-05-01T05:01:00;10.85;;;7.83;;
80209;SDS011;69529;37.974;23.708;2023-05-01T05:03:27;8.40;;;6.67;;
80209;SDS011;69529;37.974;23.708;2023-05-01T05:05:55;9.68;;;7.33;;
80209;SDS011;69529;37.974;23.708;2023-05-01T05:08:23;11.55;;;7.42;;
80209;SDS011;69529;37.974;23.708;2023-05-01T05:10:55;8.98;;;7.17;;
80209;SDS011;69529;37.974;23.708;2023-05-01T05:13:26;9.93;;;7.47;;
80209;SDS011;69529;37.974;23.708;2023-05-01T05:15:54;8.60;;;7.10;;
80209;SDS011;69529;37.974;23.708;2023-05-01T05:18:22;12.33;;;8.55;;
80209;SDS011;69529;37.974;23.708;2023-05-01T05:20:49;10.10;;;8.15;;
80209;SDS011;69529;37.974;23.708;2023-05-01T05:23:17;9.65;;;8.55;;
80209;SDS011;69529;37.974;23.708;2023-05-01T05:25:46;12.43;;;9.00;;
80209;SDS011;69529;37.974;23.708;2023-05-01T05:28:13;11.90;;;8.80;;
80209;SDS011;69529;37.974;23.708;2023-05-01T05:30:42;11.65;;;8.68;;
80209;SDS011;69529;37.974;23.708;2023-05-01T05:33:09;14.60;;;9.20;;
80209;SDS011;69529;37.974;23.708;2023-05-01T05:35:38;10.45;;;6.70;;
80209;SDS011;69529;37.974;23.708;2023-05-01T05:38:05;13.13;;;8.60;;
80209;SDS011;69529;37.974;23.708;2023-05-01T05:40:33;13.28;;;8.33;;
80209;SDS011;69529;37.974;23.708;2023-05-01T05:43:01;13.22;;;8.75;;
80209;SDS011;69529;37.974;23.708;2023-05-01T05:45:32;11.20;;;7.45;;
80209;SDS011;69529;37.974;23.708;2023-05-01T05:47:59;9.85;;;7.97;;
80209;SDS011;69529;37.974;23.708;2023-05-01T05:50:27;10.98;;;7.83;;
80209;SDS011;69529;37.974;23.708;2023-05-01T05:52:57;9.55;;;7.35;;
80209;SDS011;69529;37.974;23.708;2023-05-01T05:55:25;9.13;;;7.40;;
80209;SDS011;69529;37.974;23.708;2023-05-01T05:57:53;8.95;;;7.58;;
80209;SDS011;69529;37.974;23.708;2023-05-01T06:00:20;9.58;;;6.50;;
80209;SDS011;69529;37.974;23.708;2023-05-01T06:02:48;8.90;;;7.45;;
80209;SDS011;69529;37.974;23.708;2023-05-01T06:05:16;12.28;;;8.13;;
80209;SDS011;69529;37.974;23.708;2023-05-01T06:07:44;9.55;;;7.00;;
80209;SDS011;69529;37.974;23.708;2023-05-01T06:10:12;9.25;;;8.05;;
80209;SDS011;69529;37.974;23.708;2023-05-01T06:12:39;9.13;;;7.53;;
80209;SDS011;69529;37.974;23.708;2023-05-01T06:15:07;9.68;;;7.65;;
80209;SDS011;69529;37.974;23.708;2023-05-01T06:17:35;9.58;;;7.58;;
80209;SDS011;69529;37.974;23.708;2023-05-01T06:20:03;8.20;;;7.15;;
80209;SDS011;69529;37.974;23.708;2023-05-01T06:22:31;7.65;;;6.90;;
80209;SDS011;69529;37.974;23.708;2023-05-01T06:24:59;10.25;;;7.60;;
80209;SDS011;69529;37.974;23.708;2023-05-01T06:27:26;8.73;;;6.85;;
80209;SDS011;69529;37.974;23.708;2023-05-01T06:29:54;9.53;;;7.05;;
80209;SDS011;69529;37.974;23.708;2023-05-01T06:32:22;7.80;;;6.60;;
80209;SDS011;69529;37.974;23.708;2023-05-01T06:34:50;9.05;;;7.40;;
80209;SDS011;69529;37.974;23.708;2023-05-01T06:37:17;8.25;;;6.08;;
80209;SDS011;69529;37.974;23.708;2023-05-01T06:39:46;9.93;;;8.45;;
80209;SDS011;69529;37.974;23.708;2023-05-01T06:42:14;9.10;;;7.55;;
80209;SDS011;69529;37.974;23.708;2023-05-01T06:44:41;8.15;;;6.78;;
80209;SDS011;69529;37.974;23.708;2023-05-01T06:47:09;6.95;;;6.17;;
80209;SDS011;69529;37.974;23.708;2023-05-01T06:49:37;8.28;;;5.92;;
80209;SDS011;69529;37.974;23.708;2023-05-01T06:52:05;10.23;;;7.65;;
80209;SDS011;69529;37.974;23.708;2023-05-01T06:54:32;6.80;;;5.97;;
80209;SDS011;69529;37.974;23.708;2023-05-01T06:57:00;6.20;;;5.45;;
80209;SDS011;69529;37.974;23.708;2023-05-01T06:59:28;7.20;;;6.00;;
80209;SDS011;69529;37.974;23.708;2023-05-01T07:01:55;6.83;;;5.58;;
80209;SDS011;69529;37.974;23.708;2023-05-01T07:04:23;8.33;;;5.58;;
80209;SDS011;69529;37.974;23.708;2023-05-01T07:06:51;5.67;;;4.80;;
80209;SDS011;69529;37.974;23.708;2023-05-01T07:09:18;6.97;;;5.37;;
80209;SDS011;69529;37.974;23.708;2023-05-01T07:11:46;5.15;;;4.65;;
80209;SDS011;69529;37.974;23.708;2023-05-01T07:14:14;5.50;;;5.00;;
80209;SDS011;69529;37.974;23.708;2023-05-01T07:16:42;7.42;;;5.55;;
80209;SDS011;69529;37.974;23.708;2023-05-01T07:19:10;6.33;;;5.10;;
80209;SDS011;69529;37.974;23.708;2023-05-01T07:21:39;5.12;;;4.62;;
80209;SDS011;69529;37.974;23.708;2023-05-01T07:24:06;5.12;;;4.35;;
80209;SDS011;69529;37.974;23.708;2023-05-01T07:26:34;4.80;;;4.35;;
80209;SDS011;69529;37.974;23.708;2023-05-01T07:29:03;5.30;;;4.50;;
80209;SDS011;69529;37.974;23.708;2023-05-01T07:31:31;6.20;;;4.83;;
80209;SDS011;69529;37.974;23.708;2023-05-01T07:33:59;5.20;;;4.65;;
80209;SDS011;69529;37.974;23.708;2023-05-01T07:36:26;4.75;;;4.17;;
80209;SDS011;69529;37.974;23.708;2023-05-01T07:38:54;7.12;;;5.78;;
80209;SDS011;69529;37.974;23.708;2023-05-01T07:41:22;7.03;;;4.83;;
80209;SDS011;69529;37.974;23.708;2023-05-01T07:43:50;5.15;;;4.55;;
80209;SDS011;69529;37.974;23.708;2023-05-01T07:46:17;6.65;;;5.20;;
80209;SDS011;69529;37.974;23.708;2023-05-01T07:48:45;6.47;;;5.70;;
80209;SDS011;69529;37.974;23.708;2023-05-01T07:51:13;5.55;;;5.05;;
80209;SDS011;69529;37.974;23.708;2023-05-01T07:53:41;7.03;;;5.55;;
80209;SDS011;69529;37.974;23.708;2023-05-01T07:56:09;5.50;;;4.75;;
80209;SDS011;69529;37.974;23.708;2023-05-01T07:58:36;5.67;;;4.75;;
80209;SDS011;69529;37.974;23.708;2023-05-01T08:01:06;5.35;;;4.37;;
80209;SDS011;69529;37.974;23.708;2023-05-01T08:03:34;5.85;;;5.20;;
80209;SDS011;69529;37.974;23.708;2023-05-01T08:06:03;6.60;;;4.58;;
80209;SDS011;69529;37.974;23.708;2023-05-01T08:08:31;4.25;;;3.85;;
80209;SDS011;69529;37.974;23.708;2023-05-01T08:10:59;5.00;;;4.60;;
80209;SDS011;69529;37.974;23.708;2023-05-01T08:13:26;5.05;;;4.50;;
80209;SDS011;69529;37.974;23.708;2023-05-01T08:15:54;4.87;;;3.95;;
80209;SDS011;69529;37.974;23.708;2023-05-01T08:18:23;4.92;;;3.77;;
80209;SDS011;69529;37.974;23.708;2023-05-01T08:20:51;6.67;;;4.28;;
80209;SDS011;69529;37.974;23.708;2023-05-01T08:23:19;5.97;;;4.37;;
80209;SDS011;69529;37.974;23.708;2023-05-01T08:25:46;4.67;;;3.98;;
80209;SDS011;69529;37.974;23.708;2023-05-01T08:28:16;5.72;;;5.15;;
80209;SDS011;69529;37.974;23.708;2023-05-01T08:30:46;4.83;;;4.37;;
80209;SDS011;69529;37.974;23.708;2023-05-01T08:33:16;5.20;;;4.27;;
80209;SDS011;69529;37.974;23.708;2023-05-01T08:35:44;5.47;;;4.53;;
80209;SDS011;69529;37.974;23.708;2023-05-01T08:38:13;7.00;;;4.53;;
80209;SDS011;69529;37.974;23.708;2023-05-01T08:40:43;6.53;;;5.50;;
80209;SDS011;69529;37.974;23.708;2023-05-01T08:43:11;9.83;;;5.27;;
80209;SDS011;69529;37.974;23.708;2023-05-01T08:45:40;6.33;;;5.70;;
80209;SDS011;69529;37.974;23.708;2023-05-01T08:48:10;7.60;;;5.25;;
80209;SDS011;69529;37.974;23.708;2023-05-01T08:50:39;4.17;;;3.77;;
80209;SDS011;69529;37.974;23.708;2023-05-01T08:53:08;5.72;;;5.20;;
80209;SDS011;69529;37.974;23.708;2023-05-01T08:55:38;6.58;;;5.33;;
80209;SDS011;69529;37.974;23.708;2023-05-01T08:58:08;6.40;;;4.75;;
80209;SDS011;69529;37.974;23.708;2023-05-01T09:00:37;7.72;;;6.92;;
80209;SDS011;69529;37.974;23.708;2023-05-01T09:03:06;5.12;;;4.65;;
80209;SDS011;69529;37.974;23.708;2023-05-01T09:05:36;6.12;;;4.92;;
80209;SDS011;69529;37.974;23.708;2023-05-01T09:08:04;5.12;;;4.40;;
80209;SDS011;69529;37.974;23.708;2023-05-01T09:10:32;8.65;;;5.75;;
80209;SDS011;69529;37.974;23.708;2023-05-01T09:13:01;4.90;;;4.35;;
80209;SDS011;69529;37.974;23.708;2023-05-01T09:15:31;5.72;;;4.87;;
80209;SDS011;69529;37.974;23.708;2023-05-01T09:18:00;5.83;;;4.92;;
80209;SDS011;69529;37.974;23.708;2023-05-01T09:20:28;5.58;;;4.35;;
80209;SDS011;69529;37.974;23.708;2023-05-01T09:22:57;4.42;;;3.87;;
80209;SDS011;69529;37.974;23.708;2023-05-01T09:25:25;6.47;;;5.10;;
80209;SDS011;69529;37.974;23.708;2023-05-01T09:27:52;6.17;;;5.58;;
80209;SDS011;69529;37.974;23.708;2023-05-01T09:30:28;7.35;;;6.47;;
80209;SDS011;69529;37.974;23.708;2023-05-01T09:33:10;6.12;;;5.55;;
80209;SDS011;69529;37.974;23.708;2023-05-01T09:35:54;8.65;;;6.97;;
80209;SDS011;69529;37.974;23.708;2023-05-01T09:38:25;8.35;;;7.12;;
80209;SDS011;69529;37.974;23.708;2023-05-01T09:40:56;10.68;;;8.33;;
80209;SDS011;69529;37.974;23.708;2023-05-01T09:43:25;7.17;;;6.30;;
80209;SDS011;69529;37.974;23.708;2023-05-01T09:48:34;5.10;;;4.03;;
80209;SDS011;69529;37.974;23.708;2023-05-01T09:53:49;5.53;;;4.75;;
80209;SDS011;69529;37.974;23.708;2023-05-01T09:56:17;7.62;;;5.20;;
80209;SDS011;69529;37.974;23.708;2023-05-01T09:58:52;5.70;;;5.05;;
80209;SDS011;69529;37.974;23.708;2023-05-01T10:01:16;6.87;;;5.30;;
80209;SDS011;69529;37.974;23.708;2023-05-01T10:03:44;4.67;;;4.28;;
80209;SDS011;69529;37.974;23.708;2023-05-01T10:06:24;6.25;;;5.03;;
80209;SDS011;69529;37.974;23.708;2023-05-01T10:08:53;4.50;;;3.55;;
80209;SDS011;69529;37.974;23.708;2023-05-01T10:11:21;6.37;;;4.47;;
80209;SDS011;69529;37.974;23.708;2023-05-01T10:14:04;5.03;;;3.47;;
80209;SDS011;69529;37.974;23.708;2023-05-01T10:16:34;4.22;;;3.55;;
80209;SDS011;69529;37.974;23.708;2023-05-01T10:19:03;4.83;;;3.87;;
80209;SDS011;69529;37.974;23.708;2023-05-01T10:21:32;4.33;;;3.25;;
80209;SDS011;69529;37.974;23.708;2023-05-01T10:24:00;3.50;;;3.20;;
80209;SDS011;69529;37.974;23.708;2023-05-01T10:26:33;3.85;;;3.45;;
80209;SDS011;69529;37.974;23.708;2023-05-01T10:29:01;3.20;;;2.90;;
80209;SDS011;69529;37.974;23.708;2023-05-01T10:31:30;3.30;;;3.00;;
80209;SDS011;69529;37.974;23.708;2023-05-01T10:36:48;4.55;;;3.87;;
80209;SDS011;69529;37.974;23.708;2023-05-01T10:39:28;3.25;;;2.90;;
80209;SDS011;69529;37.974;23.708;2023-05-01T10:42:02;3.95;;;3.65;;
80209;SDS011;69529;37.974;23.708;2023-05-01T10:44:33;4.28;;;3.90;;
80209;SDS011;69529;37.974;23.708;2023-05-01T10:50:02;4.95;;;4.20;;
80209;SDS011;69529;37.974;23.708;2023-05-01T10:55:42;3.85;;;3.35;;
80209;SDS011;69529;37.974;23.708;2023-05-01T10:58:11;4.58;;;4.10;;
80209;SDS011;69529;37.974;23.708;2023-05-01T11:00:41;7.60;;;5.17;;
80209;SDS011;69529;37.974;23.708;2023-05-01T11:08:29;4.55;;;3.42;;
80209;SDS011;69529;37.974;23.708;2023-05-01T11:21:48;5.97;;;4.80;;
80209;SDS011;69529;37.974;23.708;2023-05-01T11:24:16;5.92;;;5.20;;
80209;SDS011;69529;37.974;23.708;2023-05-01T11:26:44;7.78;;;5.45;;
80209;SDS011;69529;37.974;23.708;2023-05-01T11:29:12;5.20;;;4.45;;
80209;SDS011;69529;37.974;23.708;2023-05-01T11:31:40;9.63;;;4.50;;
80209;SDS011;69529;37.974;23.708;2023-05-01T11:34:07;4.72;;;3.87;;
80209;SDS011;69529;37.974;23.708;2023-05-01T11:36:46;4.65;;;4.20;;
80209;SDS011;69529;37.974;23.708;2023-05-01T11:39:16;4.90;;;4.22;;
80209;SDS011;69529;37.974;23.708;2023-05-01T11:41:44;4.00;;;3.70;;
80209;SDS011;69529;37.974;23.708;2023-05-01T11:44:16;5.37;;;4.33;;
80209;SDS011;69529;37.974;23.708;2023-05-01T11:49:10;5.00;;;3.75;;
80209;SDS011;69529;37.974;23.708;2023-05-01T11:51:39;6.00;;;4.15;;
80209;SDS011;69529;37.974;23.708;2023-05-01T11:54:07;4.47;;;4.10;;
80209;SDS011;69529;37.974;23.708;2023-05-01T11:56:38;6.05;;;4.70;;
80209;SDS011;69529;37.974;23.708;2023-05-01T11:59:11;5.10;;;4.05;;
80209;SDS011;69529;37.974;23.708;2023-05-01T12:01:42;4.83;;;4.00;;
80209;SDS011;69529;37.974;23.708;2023-05-01T12:04:11;4.70;;;4.10;;
80209;SDS011;69529;37.974;23.708;2023-05-01T12:06:43;5.30;;;4.42;;
80209;SDS011;69529;37.974;23.708;2023-05-01T12:09:21;5.70;;;3.55;;
80209;SDS011;69529;37.974;23.708;2023-05-01T12:11:51;4.33;;;3.80;;
80209;SDS011;69529;37.974;23.708;2023-05-01T12:14:20;4.12;;;3.72;;
80209;SDS011;69529;37.974;23.708;2023-05-01T12:16:49;4.95;;;3.80;;
80209;SDS011;69529;37.974;23.708;2023-05-01T12:19:17;4.42;;;3.70;;
80209;SDS011;69529;37.974;23.708;2023-05-01T12:21:44;3.90;;;3.58;;
80209;SDS011;69529;37.974;23.708;2023-05-01T12:24:13;3.22;;;2.80;;
80209;SDS011;69529;37.974;23.708;2023-05-01T12:26:44;3.30;;;2.83;;
80209;SDS011;69529;37.974;23.708;2023-05-01T12:29:12;3.75;;;3.30;;
80209;SDS011;69529;37.974;23.708;2023-05-01T12:31:46;3.95;;;3.00;;
80209;SDS011;69529;37.974;23.708;2023-05-01T12:34:15;2.55;;;2.35;;
80209;SDS011;69529;37.974;23.708;2023-05-01T12:36:51;3.08;;;2.77;;
80209;SDS011;69529;37.974;23.708;2023-05-01T12:39:13;2.53;;;2.33;;
80209;SDS011;69529;37.974;23.708;2023-05-01T12:41:42;2.62;;;2.42;;
80209;SDS011;69529;37.974;23.708;2023-05-01T12:44:29;3.65;;;2.40;;
80209;SDS011;69529;37.974;23.708;2023-05-01T12:46:44;3.10;;;2.50;;
80209;SDS011;69529;37.974;23.708;2023-05-01T12:49:17;2.72;;;2.47;;
80209;SDS011;69529;37.974;23.708;2023-05-01T12:51:52;3.30;;;2.58;;
80209;SDS011;69529;37.974;23.708;2023-05-01T12:54:22;4.10;;;2.65;;
80209;SDS011;69529;37.974;23.708;2023-05-01T12:56:52;2.90;;;2.60;;
80209;SDS011;69529;37.974;23.708;2023-05-01T12:59:23;5.17;;;2.60;;
80209;SDS011;69529;37.974;23.708;2023-05-01T13:02:06;2.50;;;2.30;;
80209;SDS011;69529;37.974;23.708;2023-05-01T13:04:30;3.75;;;2.22;;
80209;SDS011;69529;37.974;23.708;2023-05-01T13:06:59;2.37;;;2.17;;
80209;SDS011;69529;37.974;23.708;2023-05-01T13:09:28;2.20;;;2.00;;
80209;SDS011;69529;37.974;23.708;2023-05-01T13:11:57;3.10;;;2.35;;
80209;SDS011;69529;37.974;23.708;2023-05-01T13:14:37;2.27;;;2.08;;
80209;SDS011;69529;37.974;23.708;2023-05-01T13:17:08;3.52;;;2.22;;
80209;SDS011;69529;37.974;23.708;2023-05-01T13:19:38;2.80;;;2.22;;
80209;SDS011;69529;37.974;23.708;2023-05-01T13:22:07;4.12;;;2.15;;
80209;SDS011;69529;37.974;23.708;2023-05-01T13:24:38;2.22;;;2.00;;
80209;SDS011;69529;37.974;23.708;2023-05-01T13:27:07;1.70;;;1.60;;
80209;SDS011;69529;37.974;23.708;2023-05-01T13:29:36;3.67;;;2.12;;
80209;SDS011;69529;37.974;23.708;2023-05-01T13:32:09;2.58;;;1.72;;
80209;SDS011;69529;37.974;23.708;2023-05-01T13:34:41;2.58;;;2.08;;
80209;SDS011;69529;37.974;23.708;2023-05-01T13:37:08;1.80;;;1.70;;
80209;SDS011;69529;37.974;23.708;2023-05-01T13:39:40;1.77;;;1.67;;
80209;SDS011;69529;37.974;23.708;2023-05-01T13:42:12;1.75;;;1.65;;
80209;SDS011;69529;37.974;23.708;2023-05-01T13:44:50;2.62;;;2.00;;
80209;SDS011;69529;37.974;23.708;2023-05-01T13:47:15;3.13;;;2.10;;
80209;SDS011;69529;37.974;23.708;2023-05-01T13:49:43;1.70;;;1.60;;
80209;SDS011;69529;37.974;23.708;2023-05-01T13:52:19;3.65;;;1.60;;
80209;SDS011;69529;37.974;23.708;2023-05-01T13:54:44;1.98;;;1.77;;
80209;SDS011;69529;37.974;23.708;2023-05-01T13:57:13;1.77;;;1.67;;
80209;SDS011;69529;37.974;23.708;2023-05-01T13:59:42;1.60;;;1.50;;
80209;SDS011;69529;37.974;23.708;2023-05-01T14:02:24;4.60;;;2.10;;
80209;SDS011;69529;37.974;23.708;2023-05-01T14:04:53;2.27;;;2.08;;
80209;SDS011;69529;37.974;23.708;2023-05-01T14:07:23;2.35;;;1.67;;
80209;SDS011;69529;37.974;23.708;2023-05-01T14:09:53;1.72;;;1.62;;
80209;SDS011;69529;37.974;23.708;2023-05-01T14:12:23;1.77;;;1.67;;
80209;SDS011;69529;37.974;23.708;2023-05-01T14:14:55;2.05;;;1.82;;
80209;SDS011;69529;37.974;23.708;2023-05-01T14:17:31;1.90;;;1.70;;
80209;SDS011;69529;37.974;23.708;2023-05-01T14:20:01;2.37;;;2.10;;
80209;SDS011;69529;37.974;23.708;2023-05-01T14:22:40;2.15;;;1.82;;
80209;SDS011;69529;37.974;23.708;2023-05-01T14:25:26;1.80;;;1.70;;
80209;SDS011;69529;37.974;23.708;2023-05-01T14:27:56;1.85;;;1.75;;
80209;SDS011;69529;37.974;23.708;2023-05-01T14:32:59;2.67;;;1.82;;
80209;SDS011;69529;37.974;23.708;2023-05-01T14:35:28;2.33;;;2.00;;
80209;SDS011;69529;37.974;23.708;2023-05-01T14:38:17;2.00;;;1.80;;
80209;SDS011;69529;37.974;23.708;2023-05-01T14:40:41;2.20;;;1.90;;
80209;SDS011;69529;37.974;23.708;2023-05-01T14:43:13;2.17;;;1.80;;
80209;SDS011;69529;37.974;23.708;2023-05-01T14:45:43;2.27;;;2.00;;
80209;SDS011;69529;37.974;23.708;2023-05-01T14:48:23;1.90;;;1.80;;
80209;SDS011;69529;37.974;23.708;2023-05-01T14:50:49;2.00;;;1.82;;
80209;SDS011;69529;37.974;23.708;2023-05-01T14:53:19;2.92;;;1.70;;
80209;SDS011;69529;37.974;23.708;2023-05-01T14:55:52;3.67;;;2.00;;
80209;SDS011;69529;37.974;23.708;2023-05-01T14:58:19;2.58;;;2.12;;
80209;SDS011;69529;37.974;23.708;2023-05-01T15:00:47;2.85;;;2.17;;
80209;SDS011;69529;37.974;23.708;2023-05-01T15:03:15;1.95;;;1.85;;
80209;SDS011;69529;37.974;23.708;2023-05-01T15:05:43;2.00;;;1.80;;
80209;SDS011;69529;37.974;23.708;2023-05-01T15:10:59;1.98;;;1.77;;
80209;SDS011;69529;37.974;23.708;2023-05-01T15:13:27;2.00;;;1.90;;
80209;SDS011;69529;37.974;23.708;2023-05-01T15:15:56;2.00;;;1.90;;
80209;SDS011;69529;37.974;23.708;2023-05-01T15:18:24;1.72;;;1.55;;
80209;SDS011;69529;37.974;23.708;2023-05-01T15:20:51;1.82;;;1.60;;
80209;SDS011;69529;37.974;23.708;2023-05-01T15:23:19;2.67;;;1.92;;
80209;SDS011;69529;37.974;23.708;2023-05-01T15:25:47;2.10;;;2.00;;
80209;SDS011;69529;37.974;23.708;2023-05-01T15:28:15;2.37;;;2.02;;
80209;SDS011;69529;37.974;23.708;2023-05-01T15:30:43;2.00;;;1.90;;
80209;SDS011;69529;37.974;23.708;2023-05-01T15:33:12;1.98;;;1.87;;
80209;SDS011;69529;37.974;23.708;2023-05-01T15:35:40;2.17;;;1.98;;
80209;SDS011;69529;37.974;23.708;2023-05-01T15:38:07;2.20;;;2.10;;
80209;SDS011;69529;37.974;23.708;2023-05-01T15:40:35;2.25;;;2.00;;
80209;SDS011;69529;37.974;23.708;2023-05-01T15:43:03;2.30;;;2.10;;